sensor_id;sensor_type;location;lat;lon;timestamp;P1;durP1;ratioP1;P2;durP2;ratioP2
9264;SDS011;4669;49.594;10.958;2023-04-24T04:26:31;1.00;;;1.00;;
9264;SDS011;4669;49.594;10.958;2023-04-24T04:31:38;1.30;;;1.20;;
9264;SDS011;4669;49.594;10.958;2023-04-24T04:36:45;2.70;;;1.42;;
9264;SDS011;4669;49.594;10.958;2023-04-24T04:42:00;1.00;;;1.00;;
9264;SDS011;4669;49.594;10.958;2023-04-24T04:47:09;1.30;;;1.20;;
9264;SDS011;4669;49.594;10.958;2023-04-24T04:52:11;1.40;;;1.17;;
9264;SDS011;4669;49.594;10.958;2023-04-24T04:57:15;1.58;;;1.25;;
9264;SDS011;4669;49.594;10.958;2023-04-24T05:02:18;1.50;;;1.40;;
9264;SDS011;4669;49.594;10.958;2023-04-24T05:07:20;3.17;;;1.30;;
9264;SDS011;4669;49.594;10.958;2023-04-24T05:12:27;1.92;;;1.40;;
9264;SDS011;4669;49.594;10.958;2023-04-24T05:17:31;4.95;;;1.70;;
9264;SDS011;4669;49.594;10.958;2023-04-24T05:22:33;4.07;;;1.55;;
9264;SDS011;4669;49.594;10.958;2023-04-24T05:27:38;3.60;;;1.58;;
9264;SDS011;4669;49.594;10.958;2023-04-24T05:32:46;1.58;;;1.42;;
9264;SDS011;4669;49.594;10.958;2023-04-24T05:37:48;1.40;;;1.30;;
9264;SDS011;4669;49.594;10.958;2023-04-24T05:42:52;1.88;;;1.30;;
9264;SDS011;4669;49.594;10.958;2023-04-24T05:47:55;2.78;;;1.27;;
9264;SDS011;4669;49.594;10.958;2023-04-24T05:52:57;2.47;;;1.33;;
9264;SDS011;4669;49.594;10.958;2023-04-24T05:58:05;2.03;;;1.42;;
9264;SDS011;4669;49.594;10.958;2023-04-24T06:03:09;1.95;;;1.15;;
9264;SDS011;4669;49.594;10.958;2023-04-24T06:08:11;1.88;;;1.30;;
9264;SDS011;4669;49.594;10.958;2023-04-24T06:13:18;1.73;;;1.20;;
9264;SDS011;4669;49.594;10.958;2023-04-24T06:18:40;3.40;;;2.55;;
9264;SDS011;4669;49.594;10.958;2023-04-24T06:23:43;1.83;;;1.35;;
9264;SDS011;4669;49.594;10.958;2023-04-24T06:28:47;2.33;;;0.90;;
9264;SDS011;4669;49.594;10.958;2023-04-24T06:33:50;4.82;;;2.47;;
9264;SDS011;4669;49.594;10.958;2023-04-24T06:38:52;2.30;;;1.20;;
9264;SDS011;4669;49.594;10.958;2023-04-24T06:43:56;1.63;;;0.88;;
9264;SDS011;4669;49.594;10.958;2023-04-24T06:48:58;2.45;;;1.30;;
9264;SDS011;4669;49.594;10.958;2023-04-24T06:54:01;1.63;;;0.90;;
9264;SDS011;4669;49.594;10.958;2023-04-24T06:59:04;3.80;;;0.93;;
9264;SDS011;4669;49.594;10.958;2023-04-24T07:04:06;1.88;;;0.98;;
9264;SDS011;4669;49.594;10.958;2023-04-24T07:09:08;0.90;;;0.73;;
9264;SDS011;4669;49.594;10.958;2023-04-24T07:14:12;0.93;;;0.75;;
9264;SDS011;4669;49.594;10.958;2023-04-24T07:19:15;0.70;;;0.70;;
9264;SDS011;4669;49.594;10.958;2023-04-24T07:24:17;1.83;;;0.98;;
9264;SDS011;4669;49.594;10.958;2023-04-24T07:29:20;4.47;;;1.50;;
9264;SDS011;4669;49.594;10.958;2023-04-24T07:34:22;2.38;;;1.45;;
9264;SDS011;4669;49.594;10.958;2023-04-24T07:39:24;3.80;;;1.10;;
9264;SDS011;4669;49.594;10.958;2023-04-24T07:44:29;3.13;;;1.40;;
9264;SDS011;4669;49.594;10.958;2023-04-24T07:49:32;1.60;;;1.20;;
9264;SDS011;4669;49.594;10.958;2023-04-24T07:54:35;2.85;;;1.40;;
9264;SDS011;4669;49.594;10.958;2023-04-24T07:59:39;1.50;;;1.30;;
9264;SDS011;4669;49.594;10.958;2023-04-24T08:04:41;2.10;;;1.40;;
9264;SDS011;4669;49.594;10.958;2023-04-24T08:09:43;1.83;;;1.63;;
9264;SDS011;4669;49.594;10.958;2023-04-24T08:14:46;2.55;;;1.70;;
9264;SDS011;4669;49.594;10.958;2023-04-24T08:19:48;1.92;;;1.73;;
9264;SDS011;4669;49.594;10.958;2023-04-24T08:24:51;2.53;;;1.75;;
9264;SDS011;4669;49.594;10.958;2023-04-24T08:29:54;1.98;;;1.77;;
9264;SDS011;4669;49.594;10.958;2023-04-24T08:34:56;4.13;;;2.20;;
9264;SDS011;4669;49.594;10.958;2023-04-24T08:39:59;3.97;;;2.55;;
9264;SDS011;4669;49.594;10.958;2023-04-24T08:45:03;4.45;;;2.22;;
9264;SDS011;4669;49.594;10.958;2023-04-24T08:50:06;2.60;;;2.40;;
9264;SDS011;4669;49.594;10.958;2023-04-24T08:55:09;2.40;;;2.20;;
9264;SDS011;4669;49.594;10.958;2023-04-24T09:00:14;3.40;;;1.95;;
9264;SDS011;4669;49.594;10.958;2023-04-24T09:05:16;3.17;;;2.35;;
9264;SDS011;4669;49.594;10.958;2023-04-24T09:10:19;2.90;;;1.60;;
9264;SDS011;4669;49.594;10.958;2023-04-24T09:15:23;1.92;;;1.83;;
9264;SDS011;4669;49.594;10.958;2023-04-24T09:20:26;3.00;;;1.80;;
9264;SDS011;4669;49.594;10.958;2023-04-24T09:25:31;2.30;;;2.10;;
9264;SDS011;4669;49.594;10.958;2023-04-24T09:30:35;2.83;;;2.15;;
9264;SDS011;4669;49.594;10.958;2023-04-24T09:35:40;2.60;;;1.98;;
9264;SDS011;4669;49.594;10.958;2023-04-24T09:40:43;2.72;;;2.03;;
9264;SDS011;4669;49.594;10.958;2023-04-24T09:45:46;1.98;;;1.67;;
9264;SDS011;4669;49.594;10.958;2023-04-24T09:50:49;1.83;;;1.65;;
9264;SDS011;4669;49.594;10.958;2023-04-24T09:55:53;3.78;;;1.90;;
9264;SDS011;4669;49.594;10.958;2023-04-24T10:00:57;1.77;;;1.45;;
9264;SDS011;4669;49.594;10.958;2023-04-24T10:05:59;3.47;;;1.40;;
9264;SDS011;4669;49.594;10.958;2023-04-24T10:11:02;1.38;;;1.27;;
9264;SDS011;4669;49.594;10.958;2023-04-24T10:16:05;4.43;;;1.50;;
9264;SDS011;4669;49.594;10.958;2023-04-24T10:21:08;3.50;;;1.33;;
9264;SDS011;4669;49.594;10.958;2023-04-24T10:26:11;2.90;;;1.10;;
9264;SDS011;4669;49.594;10.958;2023-04-24T10:31:18;1.83;;;0.80;;
9264;SDS011;4669;49.594;10.958;2023-04-24T10:36:21;1.42;;;0.93;;
9264;SDS011;4669;49.594;10.958;2023-04-24T10:41:26;2.28;;;0.80;;
9264;SDS011;4669;49.594;10.958;2023-04-24T10:46:30;3.00;;;0.88;;
9264;SDS011;4669;49.594;10.958;2023-04-24T10:51:45;1.25;;;0.90;;
9264;SDS011;4669;49.594;10.958;2023-04-24T10:56:49;1.38;;;1.25;;
9264;SDS011;4669;49.594;10.958;2023-04-24T11:01:56;1.58;;;1.30;;
9264;SDS011;4669;49.594;10.958;2023-04-24T11:06:58;1.38;;;1.27;;
9264;SDS011;4669;49.594;10.958;2023-04-24T11:12:04;1.35;;;1.23;;
9264;SDS011;4669;49.594;10.958;2023-04-24T11:17:26;1.98;;;1.50;;
9264;SDS011;4669;49.594;10.958;2023-04-24T11:22:30;1.80;;;1.70;;
9264;SDS011;4669;49.594;10.958;2023-04-24T11:27:38;3.38;;;1.58;;
9264;SDS011;4669;49.594;10.958;2023-04-24T11:32:42;2.20;;;1.90;;
9264;SDS011;4669;49.594;10.958;2023-04-24T11:37:45;1.98;;;1.55;;
9264;SDS011;4669;49.594;10.958;2023-04-24T11:42:49;3.75;;;1.50;;
9264;SDS011;4669;49.594;10.958;2023-04-24T11:47:53;1.40;;;1.30;;
9264;SDS011;4669;49.594;10.958;2023-04-24T11:52:55;3.35;;;1.70;;
9264;SDS011;4669;49.594;10.958;2023-04-24T11:57:58;2.63;;;1.50;;
9264;SDS011;4669;49.594;10.958;2023-04-24T12:03:08;2.28;;;1.73;;
9264;SDS011;4669;49.594;10.958;2023-04-24T12:08:11;3.50;;;2.17;;
9264;SDS011;4669;49.594;10.958;2023-04-24T12:13:13;2.55;;;2.10;;
9264;SDS011;4669;49.594;10.958;2023-04-24T12:18:17;2.58;;;2.15;;
9264;SDS011;4669;49.594;10.958;2023-04-24T12:23:33;3.53;;;2.20;;
9264;SDS011;4669;49.594;10.958;2023-04-24T12:28:36;12.85;;;1.80;;
9264;SDS011;4669;49.594;10.958;2023-04-24T12:33:40;2.40;;;1.92;;
9264;SDS011;4669;49.594;10.958;2023-04-24T12:38:43;2.03;;;1.92;;
9264;SDS011;4669;49.594;10.958;2023-04-24T12:43:53;2.47;;;1.95;;
9264;SDS011;4669;49.594;10.958;2023-04-24T12:48:56;2.63;;;1.73;;
9264;SDS011;4669;49.594;10.958;2023-04-24T12:53:58;3.65;;;1.73;;
9264;SDS011;4669;49.594;10.958;2023-04-24T12:59:01;1.83;;;1.55;;
9264;SDS011;4669;49.594;10.958;2023-04-24T13:04:04;3.58;;;1.77;;
9264;SDS011;4669;49.594;10.958;2023-04-24T13:09:06;3.72;;;1.80;;
9264;SDS011;4669;49.594;10.958;2023-04-24T13:14:10;1.77;;;1.60;;
9264;SDS011;4669;49.594;10.958;2023-04-24T13:19:13;2.63;;;1.70;;
9264;SDS011;4669;49.594;10.958;2023-04-24T13:24:15;1.92;;;1.70;;
9264;SDS011;4669;49.594;10.958;2023-04-24T13:29:17;1.75;;;1.65;;
9264;SDS011;4669;49.594;10.958;2023-04-24T13:34:20;1.95;;;1.58;;
9264;SDS011;4669;49.594;10.958;2023-04-24T13:39:23;2.15;;;1.77;;
9264;SDS011;4669;49.594;10.958;2023-04-24T13:44:25;2.70;;;1.50;;
9264;SDS011;4669;49.594;10.958;2023-04-24T13:49:28;1.75;;;1.65;;
9264;SDS011;4669;49.594;10.958;2023-04-24T13:54:31;4.07;;;1.95;;
9264;SDS011;4669;49.594;10.958;2023-04-24T13:59:33;2.08;;;1.38;;
9264;SDS011;4669;49.594;10.958;2023-04-24T14:04:36;1.50;;;1.40;;
9264;SDS011;4669;49.594;10.958;2023-04-24T14:09:38;2.03;;;1.55;;
9264;SDS011;4669;49.594;10.958;2023-04-24T14:14:40;4.03;;;1.95;;
9264;SDS011;4669;49.594;10.958;2023-04-24T14:19:44;2.00;;;1.90;;
9264;SDS011;4669;49.594;10.958;2023-04-24T14:24:46;4.03;;;2.00;;
9264;SDS011;4669;49.594;10.958;2023-04-24T14:29:48;2.55;;;1.92;;
9264;SDS011;4669;49.594;10.958;2023-04-24T14:34:51;2.50;;;2.00;;
9264;SDS011;4669;49.594;10.958;2023-04-24T14:39:53;2.30;;;2.10;;
9264;SDS011;4669;49.594;10.958;2023-04-24T14:44:55;2.15;;;1.95;;
9264;SDS011;4669;49.594;10.958;2023-04-24T14:49:59;1.92;;;1.83;;
9264;SDS011;4669;49.594;10.958;2023-04-24T14:55:01;2.25;;;1.88;;
9264;SDS011;4669;49.594;10.958;2023-04-24T15:00:03;3.30;;;2.20;;
9264;SDS011;4669;49.594;10.958;2023-04-24T15:05:10;3.78;;;2.30;;
9264;SDS011;4669;49.594;10.958;2023-04-24T15:10:12;3.22;;;2.17;;
9264;SDS011;4669;49.594;10.958;2023-04-24T15:15:14;3.72;;;2.40;;
9264;SDS011;4669;49.594;10.958;2023-04-24T15:20:17;3.40;;;3.10;;
9264;SDS011;4669;49.594;10.958;2023-04-24T15:25:19;2.33;;;2.13;;
9264;SDS011;4669;49.594;10.958;2023-04-24T15:30:21;2.83;;;2.50;;
9264;SDS011;4669;49.594;10.958;2023-04-24T15:35:25;2.70;;;2.50;;
9264;SDS011;4669;49.594;10.958;2023-04-24T15:40:27;6.82;;;2.75;;
9264;SDS011;4669;49.594;10.958;2023-04-24T15:45:29;4.75;;;2.90;;
9264;SDS011;4669;49.594;10.958;2023-04-24T15:50:33;2.85;;;2.60;;
9264;SDS011;4669;49.594;10.958;2023-04-24T15:55:36;4.78;;;2.80;;
9264;SDS011;4669;49.594;10.958;2023-04-24T16:00:38;3.05;;;2.75;;
9264;SDS011;4669;49.594;10.958;2023-04-24T16:05:41;3.08;;;2.78;;
9264;SDS011;4669;49.594;10.958;2023-04-24T16:10:43;3.80;;;2.70;;
9264;SDS011;4669;49.594;10.958;2023-04-24T16:15:46;2.70;;;2.45;;
9264;SDS011;4669;49.594;10.958;2023-04-24T16:20:50;4.90;;;2.90;;
9264;SDS011;4669;49.594;10.958;2023-04-24T16:25:52;5.13;;;2.70;;
9264;SDS011;4669;49.594;10.958;2023-04-24T16:30:54;3.47;;;2.80;;
9264;SDS011;4669;49.594;10.958;2023-04-24T16:35:58;3.42;;;2.53;;
9264;SDS011;4669;49.594;10.958;2023-04-24T16:41:00;3.55;;;2.63;;
9264;SDS011;4669;49.594;10.958;2023-04-24T16:46:02;4.03;;;2.90;;
9264;SDS011;4669;49.594;10.958;2023-04-24T16:51:05;4.30;;;3.20;;
9264;SDS011;4669;49.594;10.958;2023-04-24T16:56:07;5.05;;;3.20;;
9264;SDS011;4669;49.594;10.958;2023-04-24T17:01:09;8.68;;;2.90;;
9264;SDS011;4669;49.594;10.958;2023-04-24T17:06:13;5.00;;;3.28;;
9264;SDS011;4669;49.594;10.958;2023-04-24T17:11:16;3.38;;;2.60;;
9264;SDS011;4669;49.594;10.958;2023-04-24T17:16:19;4.80;;;3.50;;
9264;SDS011;4669;49.594;10.958;2023-04-24T17:21:22;6.13;;;3.05;;
9264;SDS011;4669;49.594;10.958;2023-04-24T17:26:24;3.50;;;3.20;;
9264;SDS011;4669;49.594;10.958;2023-04-24T17:31:26;3.58;;;3.28;;
9264;SDS011;4669;49.594;10.958;2023-04-24T17:36:30;3.63;;;3.30;;
9264;SDS011;4669;49.594;10.958;2023-04-24T17:41:32;4.03;;;3.45;;
9264;SDS011;4669;49.594;10.958;2023-04-24T17:46:34;4.22;;;3.33;;
9264;SDS011;4669;49.594;10.958;2023-04-24T17:51:38;5.10;;;3.63;;
9264;SDS011;4669;49.594;10.958;2023-04-24T17:56:40;4.18;;;3.40;;
9264;SDS011;4669;49.594;10.958;2023-04-24T18:01:42;5.80;;;3.40;;
9264;SDS011;4669;49.594;10.958;2023-04-24T18:06:45;3.40;;;3.10;;
9264;SDS011;4669;49.594;10.958;2023-04-24T18:11:47;3.17;;;2.85;;
9264;SDS011;4669;49.594;10.958;2023-04-24T18:16:49;2.72;;;2.53;;
9264;SDS011;4669;49.594;10.958;2023-04-24T18:21:52;3.50;;;3.20;;
9264;SDS011;4669;49.594;10.958;2023-04-24T18:26:55;4.95;;;2.95;;
9264;SDS011;4669;49.594;10.958;2023-04-24T18:31:57;5.90;;;3.80;;
9264;SDS011;4669;49.594;10.958;2023-04-24T18:37:01;6.22;;;3.83;;
9264;SDS011;4669;49.594;10.958;2023-04-24T18:42:03;4.07;;;3.35;;
9264;SDS011;4669;49.594;10.958;2023-04-24T18:47:05;4.60;;;3.40;;
9264;SDS011;4669;49.594;10.958;2023-04-24T18:52:08;5.70;;;3.38;;
9264;SDS011;4669;49.594;10.958;2023-04-24T18:57:11;3.00;;;2.80;;
9264;SDS011;4669;49.594;10.958;2023-04-24T19:02:13;3.83;;;3.50;;
9264;SDS011;4669;49.594;10.958;2023-04-24T19:07:17;4.50;;;4.10;;
9264;SDS011;4669;49.594;10.958;2023-04-24T19:12:20;4.50;;;3.75;;
9264;SDS011;4669;49.594;10.958;2023-04-24T19:17:22;5.78;;;4.30;;
9264;SDS011;4669;49.594;10.958;2023-04-24T19:22:25;5.20;;;3.42;;
9264;SDS011;4669;49.594;10.958;2023-04-24T19:27:28;4.28;;;3.90;;
9264;SDS011;4669;49.594;10.958;2023-04-24T19:32:30;5.47;;;3.80;;
9264;SDS011;4669;49.594;10.958;2023-04-24T19:37:34;4.47;;;4.00;;
9264;SDS011;4669;49.594;10.958;2023-04-24T19:42:36;4.03;;;3.63;;
9264;SDS011;4669;49.594;10.958;2023-04-24T19:47:40;4.97;;;3.60;;
9264;SDS011;4669;49.594;10.958;2023-04-24T19:52:44;4.65;;;4.03;;
9264;SDS011;4669;49.594;10.958;2023-04-24T19:57:46;3.75;;;3.45;;
9264;SDS011;4669;49.594;10.958;2023-04-24T20:02:48;4.10;;;3.70;;
9264;SDS011;4669;49.594;10.958;2023-04-24T20:07:51;3.80;;;3.30;;
9264;SDS011;4669;49.594;10.958;2023-04-24T20:12:53;6.28;;;4.35;;
9264;SDS011;4669;49.594;10.958;2023-04-24T20:17:56;4.57;;;4.18;;
9264;SDS011;4669;49.594;10.958;2023-04-24T20:22:59;5.82;;;4.20;;
9264;SDS011;4669;49.594;10.958;2023-04-24T20:28:01;6.80;;;4.63;;
9264;SDS011;4669;49.594;10.958;2023-04-24T20:33:03;5.20;;;4.55;;
9264;SDS011;4669;49.594;10.958;2023-04-24T20:38:07;5.25;;;4.57;;
9264;SDS011;4669;49.594;10.958;2023-04-24T20:43:10;4.97;;;4.50;;
9264;SDS011;4669;49.594;10.958;2023-04-24T20:48:12;6.35;;;4.63;;
9264;SDS011;4669;49.594;10.958;2023-04-24T20:53:16;5.97;;;3.45;;
9264;SDS011;4669;49.594;10.958;2023-04-24T20:58:18;4.50;;;3.60;;
9264;SDS011;4669;49.594;10.958;2023-04-24T21:03:21;7.95;;;3.78;;
9264;SDS011;4669;49.594;10.958;2023-04-24T21:08:24;3.80;;;3.50;;
9264;SDS011;4669;49.594;10.958;2023-04-24T21:13:26;4.28;;;3.80;;
9264;SDS011;4669;49.594;10.958;2023-04-24T21:18:28;3.88;;;3.42;;
9264;SDS011;4669;49.594;10.958;2023-04-24T21:23:32;5.18;;;3.97;;
9264;SDS011;4669;49.594;10.958;2023-04-24T21:28:35;3.55;;;3.05;;
9264;SDS011;4669;49.594;10.958;2023-04-24T21:33:37;3.80;;;3.13;;
9264;SDS011;4669;49.594;10.958;2023-04-24T21:38:41;3.92;;;3.53;;
9264;SDS011;4669;49.594;10.958;2023-04-24T21:43:43;3.67;;;3.38;;
9264;SDS011;4669;49.594;10.958;2023-04-24T21:48:45;3.63;;;3.33;;
9264;SDS011;4669;49.594;10.958;2023-04-24T21:53:48;3.30;;;3.00;;
9264;SDS011;4669;49.594;10.958;2023-04-24T21:58:50;5.07;;;3.42;;
